Time;durP1;ratioP1;P1;durP2;ratioP2;P2;SDS_P1;SDS_P2;PMS_P1;PMS_P2;Temp;Humidity;BMP_temperature;BMP_pressure;BME280_temperature;BME280_humidity;BME280_pressure;Samples;Min_cycle;Max_cycle;Signal;HPM_P1;HPM_P2
2023/06/13 00:00:09;;;;;;;;;4.50;3.75;;;;;23.98;34.35;101475.28;4991483;28;8843;-67
2023/06/13 00:02:39;;;;;;;;;6.00;6.00;;;;;23.93;34.29;101473.34;4991591;28;8831;-67
2023/06/13 00:05:07;;;;;;;;;6.50;6.50;;;;;23.86;34.39;101470.00;5006350;28;8851;-67
2023/06/13 00:07:37;;;;;;;;;5.75;5.75;;;;;23.86;34.57;101473.63;4991577;28;8855;-66
2023/06/13 00:10:06;;;;;;;;;5.00;5.00;;;;;23.85;34.93;101476.63;4991466;28;8850;-66
2023/06/13 00:12:34;;;;;;;;;4.25;4.25;;;;;23.85;35.21;101476.63;4991220;28;8853;-67
2023/06/13 00:15:05;;;;;;;;;3.25;3.00;;;;;23.85;35.41;101482.13;4991264;28;9561;-67
2023/06/13 00:17:32;;;;;;;;;4.00;4.00;;;;;23.82;35.62;101480.75;4991617;28;8834;-65
2023/06/13 00:19:59;;;;;;;;;6.00;6.00;;;;;23.82;35.73;101469.75;4991564;28;8823;-67
2023/06/13 00:22:28;;;;;;;;;7.00;6.75;;;;;23.80;36.10;101477.41;5006213;28;8855;-67
2023/06/13 00:24:54;;;;;;;;;7.00;5.75;;;;;23.77;36.36;101479.88;5005689;28;9562;-67
2023/06/13 00:27:21;;;;;;;;;7.75;7.00;;;;;23.76;36.42;101469.97;5006058;28;8831;-67
2023/06/13 00:29:48;;;;;;;;;6.75;6.25;;;;;23.69;36.77;101471.03;5006007;28;8894;-66
2023/06/13 00:32:15;;;;;;;;;8.00;7.00;;;;;23.57;36.74;101467.63;5005967;28;8889;-67
2023/06/13 00:34:43;;;;;;;;;2.00;2.00;;;;;23.57;37.31;101467.63;4990549;28;8835;-67
2023/06/13 00:37:12;;;;;;;;;7.00;7.00;;;;;23.56;37.73;101468.72;4990879;28;9592;-67
2023/06/13 00:39:40;;;;;;;;;8.75;8.00;;;;;23.56;37.47;101467.91;4990559;28;8846;-67
2023/06/13 00:42:06;;;;;;;;;9.00;7.25;;;;;23.48;37.11;101463.75;5005608;28;8819;-66
2023/06/13 00:44:34;;;;;;;;;8.50;7.50;;;;;23.46;37.52;101468.69;5021972;28;8878;-67
2023/06/13 00:47:02;;;;;;;;;5.25;5.25;;;;;23.49;37.54;101464.56;4989364;28;8858;-67
2023/06/13 00:49:29;;;;;;;;;7.00;7.00;;;;;23.40;36.89;101469.72;5005731;28;8839;-66
2023/06/13 00:52:04;;;;;;;;;7.25;7.25;;;;;23.36;36.65;101463.13;5005517;28;8835;-67
2023/06/13 00:54:32;;;;;;;;;6.75;6.75;;;;;23.32;37.03;101461.97;5021884;28;8838;-66
2023/06/13 00:56:59;;;;;;;;;7.50;7.50;;;;;23.34;37.35;101460.66;5006192;28;8815;-67
2023/06/13 00:59:26;;;;;;;;;9.25;8.75;;;;;23.36;37.27;101463.94;4990907;28;8846;-67
2023/06/13 01:01:53;;;;;;;;;6.00;5.50;;;;;23.33;37.71;101467.22;4989515;28;8867;-68
2023/06/13 01:04:20;;;;;;;;;3.25;3.25;;;;;23.32;37.80;101465.56;4990290;28;8882;-67
2023/06/13 01:06:47;;;;;;;;;8.75;7.75;;;;;23.28;37.95;101464.44;5005941;28;8815;-67
2023/06/13 01:09:16;;;;;;;;;7.25;7.25;;;;;23.20;37.60;101460.25;4989376;28;8812;-66
2023/06/13 01:12:01;;;;;;;;;8.00;7.50;;;;;23.16;37.99;101461.03;4990637;28;8862;-65
2023/06/13 01:14:44;;;;;;;;;11.50;9.00;;;;;23.10;37.92;101462.94;5005410;28;8847;-66
2023/06/13 01:17:17;;;;;;;;;7.00;7.00;;;;;23.15;37.98;101459.41;4990631;28;8837;-67
2023/06/13 01:19:53;;;;;;;;;5.25;5.25;;;;;23.09;38.82;101458.53;4990733;28;8827;-66
2023/06/13 01:22:23;;;;;;;;;8.75;6.00;;;;;23.08;39.76;101458.78;4990437;28;8854;-66
2023/06/13 01:25:03;;;;;;;;;7.50;6.50;;;;;22.98;41.25;101461.47;5006252;28;8866;-66
2023/06/13 01:27:30;;;;;;;;;10.25;9.25;;;;;22.81;42.23;101459.66;5009592;28;8831;-67
2023/06/13 01:30:00;;;;;;;;;10.00;10.00;;;;;22.69;43.07;101462.56;5026085;28;8827;-66
2023/06/13 01:32:29;;;;;;;;;11.50;9.50;;;;;22.63;42.93;101462.75;4994457;28;8843;-67
2023/06/13 01:34:56;;;;;;;;;12.00;9.00;;;;;22.62;43.18;101456.44;4994296;28;8834;-67
2023/06/13 01:37:23;;;;;;;;;10.75;10.75;;;;;22.60;42.68;101460.53;5009209;28;8851;-67
2023/06/13 01:39:50;;;;;;;;;8.50;8.50;;;;;22.60;42.62;101455.03;4992931;28;8823;-66
2023/06/13 01:42:16;;;;;;;;;7.25;5.25;;;;;22.62;42.47;101456.44;5009089;28;8898;-66
2023/06/13 01:44:44;;;;;;;;;8.25;8.25;;;;;22.64;42.03;101454.25;5008709;28;9546;-66
2023/06/13 01:47:32;;;;;;;;;9.00;9.00;;;;;22.64;41.83;101457.00;5009258;28;8835;-66
2023/06/13 01:50:14;;;;;;;;;9.25;9.25;;;;;22.54;41.66;101461.59;4994068;28;8917;-67
2023/06/13 01:53:02;;;;;;;;;7.50;7.50;;;;;22.51;41.52;101451.94;4993924;28;8866;-66
2023/06/13 01:55:58;;;;;;;;;6.00;6.00;;;;;22.54;40.95;101456.91;5008575;28;8982;-66
2023/06/13 01:58:46;;;;;;;;;9.00;9.00;;;;;22.42;41.51;101456.25;5008883;28;8835;-66
2023/06/13 02:01:13;;;;;;;;;11.00;9.25;;;;;22.40;41.40;101464.75;5008835;28;8839;-65
2023/06/13 02:03:40;;;;;;;;;7.25;6.50;;;;;22.38;41.75;101453.19;4993535;28;8831;-67
2023/06/13 02:06:07;;;;;;;;;9.00;8.00;;;;;22.40;41.84;101461.16;4993408;28;8941;-66
2023/06/13 02:08:33;;;;;;;;;7.50;6.25;;;;;22.42;41.68;101457.06;4993639;28;8859;-66
2023/06/13 02:11:00;;;;;;;;;7.00;7.00;;;;;22.44;42.01;101454.91;4993749;28;8862;-66
2023/06/13 02:13:30;;;;;;;;;8.50;7.25;;;;;22.39;41.81;101456.75;5008467;28;8945;-66
2023/06/13 02:15:56;;;;;;;;;6.25;6.25;;;;;22.36;41.61;101457.25;4993336;28;8831;-66
2023/06/13 02:18:23;;;;;;;;;9.25;7.50;;;;;22.27;42.12;101461.56;4993480;28;8832;-66
2023/06/13 02:20:49;;;;;;;;;8.00;7.25;;;;;22.27;42.21;101465.13;4993477;28;8862;-67
2023/06/13 02:23:17;;;;;;;;;7.75;7.75;;;;;22.27;42.01;101459.63;5008528;28;8858;-67
2023/06/13 02:25:45;;;;;;;;;7.75;7.75;;;;;22.28;42.52;101458.56;4992933;28;8911;-68
2023/06/13 02:28:16;;;;;;;;;7.75;7.00;;;;;22.25;42.21;101456.34;4991948;28;8835;-66
2023/06/13 02:30:46;;;;;;;;;8.00;7.50;;;;;22.29;42.36;101453.91;5008391;28;9663;-67
2023/06/13 02:33:14;;;;;;;;;7.00;6.00;;;;;22.31;42.60;101449.81;5008166;28;8885;-66
2023/06/13 02:35:43;;;;;;;;;10.25;9.00;;;;;22.30;41.84;101452.81;5007798;28;8851;-66
2023/06/13 02:38:10;;;;;;;;;8.75;8.25;;;;;22.13;42.11;101458.41;4993134;28;8905;-67
2023/06/13 02:40:37;;;;;;;;;14.75;9.75;;;;;22.10;42.34;101461.59;4993581;28;8839;-67
2023/06/13 02:43:04;;;;;;;;;10.50;9.25;;;;;22.10;41.91;101456.13;4993010;28;8827;-67
2023/06/13 02:45:32;;;;;;;;;8.75;8.75;;;;;22.04;42.20;101452.50;5007506;28;8855;-67
2023/06/13 02:47:58;;;;;;;;;8.00;8.00;;;;;22.05;42.18;101456.91;5007794;28;8835;-67
2023/06/13 02:50:25;;;;;;;;;7.50;7.50;;;;;22.07;41.89;101462.94;5008120;28;8839;-67
2023/06/13 02:52:51;;;;;;;;;10.25;10.00;;;;;21.93;41.46;101458.94;5007699;28;9602;-66
2023/06/13 02:55:20;;;;;;;;;9.00;8.00;;;;;21.92;41.85;101458.13;4992640;28;8835;-67
2023/06/13 02:57:46;;;;;;;;;12.00;10.75;;;;;21.92;41.29;101460.84;5007802;28;8827;-67
2023/06/13 03:00:16;;;;;;;;;11.33;9.33;;;;;21.78;41.38;101456.81;4992924;28;8925;-67
2023/06/13 03:02:48;;;;;;;;;8.50;8.50;;;;;21.60;40.83;101454.41;5023953;28;9019;-67
2023/06/13 03:05:16;;;;;;;;;8.75;8.75;;;;;21.56;41.49;101458.72;4990868;28;8882;-67
2023/06/13 03:07:47;;;;;;;;;11.67;9.00;;;;;21.60;41.66;101463.44;5007677;28;8842;-67
2023/06/13 03:10:21;;;;;;;;;9.00;8.25;;;;;21.65;41.30;101469.00;5024067;28;8954;-67
2023/06/13 03:12:48;;;;;;;;;9.25;9.25;;;;;21.70;41.28;101465.47;5007482;28;8849;-67
2023/06/13 03:15:17;;;;;;;;;10.50;9.25;;;;;21.73;41.55;101471.28;5023710;28;8839;-68
2023/06/13 03:17:46;;;;;;;;;11.00;9.00;;;;;21.77;41.32;101476.28;5007300;28;8835;-67
2023/06/13 03:20:16;;;;;;;;;7.00;7.00;;;;;21.80;41.47;101473.84;5007342;28;8839;-67
2023/06/13 03:22:55;;;;;;;;;7.25;7.25;;;;;21.81;41.72;101472.78;5023772;28;8823;-67
2023/06/13 03:25:21;;;;;;;;;7.00;7.00;;;;;21.84;41.66;101475.00;5006900;28;8839;-67
2023/06/13 03:27:49;;;;;;;;;10.00;9.00;;;;;21.83;41.48;101472.50;4992218;28;8835;-67
2023/06/13 03:30:16;;;;;;;;;8.00;7.00;;;;;21.78;41.31;101475.19;5007070;28;8935;-68
2023/06/13 03:32:43;;;;;;;;;7.33;7.33;;;;;21.75;41.71;101471.03;5007545;28;8940;-66
2023/06/13 03:35:10;;;;;;;;;8.00;8.00;;;;;21.75;41.57;101473.75;5006742;28;9036;-68
2023/06/13 03:37:36;;;;;;;;;8.00;8.00;;;;;21.70;41.06;101470.97;4992065;28;8835;-67
2023/06/13 03:40:04;;;;;;;;;9.50;9.50;;;;;21.64;41.85;101469.25;5023491;28;8937;-67
2023/06/13 03:42:31;;;;;;;;;7.67;7.33;;;;;21.64;41.85;101467.34;4990607;28;8843;-67
2023/06/13 03:44:57;;;;;;;;;11.00;9.50;;;;;21.62;41.77;101461.28;4991485;28;8938;-67
2023/06/13 03:47:24;;;;;;;;;9.00;8.00;;;;;21.63;41.97;101470.31;4991581;28;8815;-67
2023/06/13 03:49:51;;;;;;;;;7.00;7.00;;;;;21.63;42.22;101467.56;5023503;28;9019;-66
2023/06/13 03:52:18;;;;;;;;;9.00;9.00;;;;;21.58;42.22;101468.34;5007010;28;8925;-67
2023/06/13 03:54:44;;;;;;;;;9.67;9.67;;;;;21.51;42.33;101466.84;5023206;28;8917;-66
2023/06/13 03:57:12;;;;;;;;;8.00;7.00;;;;;21.44;42.22;101476.09;5006982;28;9117;-68
2023/06/13 03:59:38;;;;;;;;;9.00;9.00;;;;;21.39;42.53;101470.53;4991851;28;8976;-66
2023/06/13 04:02:05;;;;;;;;;8.00;8.00;;;;;21.34;42.60;101478.66;5006697;28;9067;-67
2023/06/13 04:04:33;;;;;;;;;9.00;8.00;;;;;21.26;42.65;101470.00;4991515;28;9061;-66
2023/06/13 04:07:05;;;;;;;;;11.33;10.00;;;;;21.35;42.83;101474.88;5006784;28;9068;-67
2023/06/13 04:09:31;;;;;;;;;10.00;9.00;;;;;21.51;42.48;101481.38;5023242;28;9405;-67
2023/06/13 04:12:01;;;;;;;;;12.00;9.00;;;;;21.59;42.25;101472.75;5006470;28;9007;-67
2023/06/13 04:14:27;;;;;;;;;8.67;8.67;;;;;21.59;42.23;101472.75;4989870;28;9209;-67
2023/06/13 04:16:54;;;;;;;;;9.33;9.33;;;;;21.58;42.53;101479.28;5006901;28;9025;-68
2023/06/13 04:19:21;;;;;;;;;10.67;8.67;;;;;21.54;42.66;101472.66;5006412;28;9023;-67
2023/06/13 04:21:47;;;;;;;;;12.00;12.00;;;;;21.37;42.02;101478.16;4991388;28;8905;-68
2023/06/13 04:24:16;;;;;;;;;8.67;7.00;;;;;21.25;43.08;101485.63;5006256;28;9036;-68
2023/06/13 04:26:47;;;;;;;;;8.33;8.00;;;;;21.26;43.12;101481.78;5006331;28;8957;-67
2023/06/13 04:29:15;;;;;;;;;10.67;9.67;;;;;21.23;43.26;101474.91;5006350;28;8945;-67
2023/06/13 04:31:42;;;;;;;;;10.33;9.00;;;;;21.26;43.79;101479.06;5006285;28;9013;-67
2023/06/13 04:34:11;;;;;;;;;9.67;9.67;;;;;21.31;43.67;101472.81;4989621;28;8931;-67
2023/06/13 04:36:41;;;;;;;;;12.00;12.00;;;;;21.31;43.07;101470.94;4991097;28;8901;-67
2023/06/13 04:39:08;;;;;;;;;9.67;9.00;;;;;21.27;42.93;101477.13;5022390;28;9093;-67
2023/06/13 04:41:37;;;;;;;;;11.00;8.50;;;;;21.21;43.42;101477.06;4991048;28;9090;-67
2023/06/13 04:44:10;;;;;;;;;12.00;11.33;;;;;21.18;43.42;101480.28;4990754;28;8942;-67
2023/06/13 04:46:43;;;;;;;;;10.00;9.00;;;;;21.16;43.04;101481.66;4991115;28;9162;-67
2023/06/13 04:49:10;;;;;;;;;13.33;13.33;;;;;21.03;43.15;101477.34;4990850;28;9002;-67
2023/06/13 04:51:36;;;;;;;;;8.67;8.00;;;;;21.02;43.23;101477.56;4990715;28;9064;-67
2023/06/13 04:54:08;;;;;;;;;13.67;13.00;;;;;21.04;43.68;101484.47;4990681;28;9066;-67
2023/06/13 04:56:37;;;;;;;;;11.25;9.00;;;;;21.08;43.67;101479.31;4990781;28;9049;-66
2023/06/13 04:59:07;;;;;;;;;8.67;8.67;;;;;21.05;43.32;101477.91;4989935;28;8835;-67
2023/06/13 05:01:33;;;;;;;;;12.67;12.00;;;;;20.93;42.69;101486.19;4990405;28;9008;-67
2023/06/13 05:04:00;;;;;;;;;14.33;13.00;;;;;20.76;43.32;101484.50;4990961;28;9076;-67
2023/06/13 05:06:29;;;;;;;;;11.33;11.33;;;;;20.79;43.88;101484.03;4990354;28;9002;-66
2023/06/13 05:08:57;;;;;;;;;12.67;12.67;;;;;20.90;43.91;101483.09;5021886;28;8917;-66
2023/06/13 05:11:23;;;;;;;;;13.00;12.00;;;;;20.91;43.41;101490.25;4990529;28;9082;-66
2023/06/13 05:13:50;;;;;;;;;13.33;11.00;;;;;20.83;42.67;101488.75;5005274;28;9019;-66
2023/06/13 05:16:17;;;;;;;;;14.00;12.00;;;;;20.70;43.54;101497.25;5005236;28;9086;-66
2023/06/13 05:18:44;;;;;;;;;13.00;9.33;;;;;20.77;43.70;101502.59;4990305;28;9192;-67
2023/06/13 05:21:16;;;;;;;;;12.33;12.00;;;;;20.86;43.48;101504.66;4990446;28;9085;-66
2023/06/13 05:23:43;;;;;;;;;9.33;9.33;;;;;20.90;44.06;101508.59;5005371;28;9217;-68
2023/06/13 05:26:10;;;;;;;;;12.67;10.33;;;;;20.97;44.16;101506.50;4990031;28;9840;-67
2023/06/13 05:28:37;;;;;;;;;8.33;8.33;;;;;21.08;43.97;101506.69;4990364;28;9017;-67
2023/06/13 05:31:03;;;;;;;;;13.00;11.00;;;;;21.19;43.76;101501.16;5005165;28;9014;-67
2023/06/13 05:33:30;;;;;;;;;11.00;9.33;;;;;21.41;43.59;101511.38;4990141;28;9002;-66
2023/06/13 05:35:56;;;;;;;;;11.67;10.00;;;;;;;;4990141;28;8931;-67
2023/06/13 05:38:24;;;;;;;;;16.33;14.33;;;;;21.85;41.91;101515.03;4990635;28;9009;-67
2023/06/13 05:40:51;;;;;;;;;12.67;11.00;;;;;21.94;42.36;101515.41;5005328;28;9082;-67
2023/06/13 05:43:20;;;;;;;;;9.50;9.50;;;;;22.10;42.42;101516.44;4990136;28;9773;-67
2023/06/13 05:45:48;;;;;;;;;14.67;13.67;;;;;22.25;41.21;101513.13;5021167;28;8851;-67
2023/06/13 05:48:14;;;;;;;;;11.75;10.75;;;;;22.41;42.06;101512.22;5005188;28;8908;-67
2023/06/13 05:50:41;;;;;;;;;8.00;8.00;;;;;22.46;41.60;101512.25;4990195;28;8835;-67
2023/06/13 05:53:08;;;;;;;;;14.25;14.25;;;;;22.39;41.07;101523.41;4988768;28;8819;-67
2023/06/13 05:55:34;;;;;;;;;13.25;12.00;;;;;22.33;41.68;101518.16;4989834;28;8835;-67
2023/06/13 05:58:01;;;;;;;;;16.00;15.00;;;;;22.24;41.54;101522.41;5005339;28;8883;-66
2023/06/13 06:00:27;;;;;;;;;12.50;12.50;;;;;22.27;41.95;101514.50;4990150;28;9257;-67
2023/06/13 06:02:54;;;;;;;;;14.00;12.00;;;;;22.31;41.21;101514.81;4989907;28;9566;-67
2023/06/13 06:05:21;;;;;;;;;11.00;11.00;;;;;22.37;41.16;101513.81;4989834;28;8819;-66
2023/06/13 06:07:47;;;;;;;;;13.00;11.00;;;;;22.39;41.28;101509.69;5005121;28;8834;-66
2023/06/13 06:10:14;;;;;;;;;12.50;11.00;;;;;22.37;40.97;101516.53;5005006;28;8847;-67
2023/06/13 06:12:42;;;;;;;;;10.00;10.00;;;;;22.38;41.41;101521.75;5008515;28;9562;-66
2023/06/13 06:15:08;;;;;;;;;13.25;13.25;;;;;22.35;40.84;101508.56;4993364;28;8855;-67
2023/06/13 06:17:35;;;;;;;;;15.00;13.75;;;;;22.23;40.42;101523.50;4993633;28;8966;-67
2023/06/13 06:20:05;;;;;;;;;12.00;10.33;;;;;22.17;40.94;101517.13;4993544;28;8867;-68
2023/06/13 06:22:32;;;;;;;;;13.00;13.00;;;;;22.21;41.12;101524.59;4993641;28;9000;-65
2023/06/13 06:24:59;;;;;;;;;14.00;11.00;;;;;22.27;41.10;101527.38;4993006;28;8918;-66
2023/06/13 06:27:26;;;;;;;;;10.33;9.67;;;;;22.33;41.21;101529.13;4992951;28;8843;-67
2023/06/13 06:29:52;;;;;;;;;9.00;9.00;;;;;22.33;41.66;101520.88;4993075;28;9009;-67
2023/06/13 06:32:19;;;;;;;;;8.75;8.75;;;;;22.37;41.89;101519.28;4993070;28;8826;-67
2023/06/13 06:34:46;;;;;;;;;12.50;12.00;;;;;22.41;41.70;101524.00;5008337;28;9589;-65
2023/06/13 06:37:13;;;;;;;;;11.50;11.00;;;;;22.41;41.52;101524.00;4993012;28;8827;-66
2023/06/13 06:39:39;;;;;;;;;14.25;13.75;;;;;22.35;41.90;101513.22;5007961;28;8993;-66
2023/06/13 06:42:06;;;;;;;;;14.25;13.50;;;;;22.29;41.90;101522.47;4993210;28;8918;-65
2023/06/13 06:44:41;;;;;;;;;11.75;11.25;;;;;22.25;42.38;101524.91;5006573;28;8827;-66
2023/06/13 06:47:11;;;;;;;;;12.50;11.25;;;;;22.25;42.30;101516.69;4993004;28;8847;-66
2023/06/13 06:49:37;;;;;;;;;9.25;9.25;;;;;22.34;42.84;101522.53;5008117;28;8855;-67
2023/06/13 06:52:04;;;;;;;;;11.25;11.25;;;;;22.38;41.94;101521.75;4992754;28;8880;-66
2023/06/13 06:54:31;;;;;;;;;15.25;13.75;;;;;22.40;41.50;101519.63;5007211;28;8831;-66
2023/06/13 06:56:58;;;;;;;;;10.25;10.25;;;;;22.40;40.97;101516.88;4992670;28;8839;-67
2023/06/13 06:59:24;;;;;;;;;9.75;9.75;;;;;22.42;41.30;101516.59;4992732;28;8847;-66
2023/06/13 07:01:51;;;;;;;;;13.00;12.25;;;;;22.44;41.52;101519.91;5024046;28;8859;-66
2023/06/13 07:04:18;;;;;;;;;11.00;11.00;;;;;22.50;41.32;101515.31;4992249;28;8878;-67
2023/06/13 07:06:44;;;;;;;;;12.50;12.25;;;;;22.54;40.99;101516.47;5007403;28;9308;-66
2023/06/13 07:09:11;;;;;;;;;10.00;10.00;;;;;22.54;40.89;101516.47;4992379;28;8835;-66
2023/06/13 07:11:38;;;;;;;;;14.50;14.50;;;;;22.57;41.19;101518.69;4992428;28;9592;-67
2023/06/13 07:14:04;;;;;;;;;10.50;10.50;;;;;22.62;41.38;101514.06;4992129;28;8839;-67
2023/06/13 07:16:31;;;;;;;;;11.75;11.00;;;;;22.70;40.74;101521.03;5007031;28;8831;-65
2023/06/13 07:18:58;;;;;;;;;12.75;12.75;;;;;22.69;40.56;101525.69;5023385;28;8895;-66
2023/06/13 07:21:25;;;;;;;;;11.25;10.50;;;;;22.74;40.85;101521.34;4992032;28;9694;-66
2023/06/13 07:23:52;;;;;;;;;10.25;9.75;;;;;22.81;41.21;101524.69;4990798;28;8869;-67
2023/06/13 07:26:33;;;;;;;;;8.75;8.75;;;;;22.88;40.88;101531.63;4991902;28;8839;-66
2023/06/13 07:28:59;;;;;;;;;10.50;10.50;;;;;23.02;40.33;101521.09;4992018;28;8842;-66
2023/06/13 07:31:26;;;;;;;;;10.75;10.75;;;;;23.05;40.15;101531.56;5007025;28;8839;-66
2023/06/13 07:33:53;;;;;;;;;11.75;10.50;;;;;23.10;39.36;101517.03;5023293;28;8831;-66
2023/06/13 07:36:20;;;;;;;;;11.50;11.50;;;;;23.08;38.93;101525.53;4991579;28;8835;-66
2023/06/13 07:38:46;;;;;;;;;14.00;14.00;;;;;23.09;39.12;101521.72;4991950;28;8943;-65
2023/06/13 07:41:13;;;;;;;;;15.50;13.25;;;;;23.16;38.91;101524.22;5007148;28;8835;-66
2023/06/13 07:43:40;;;;;;;;;11.00;10.50;;;;;23.15;39.10;101517.91;4992105;28;8827;-67
2023/06/13 07:46:06;;;;;;;;;11.50;9.00;;;;;23.21;39.98;101524.25;4991754;28;8866;-66
2023/06/13 07:48:33;;;;;;;;;11.25;11.25;;;;;23.26;38.96;101523.50;5023469;28;8852;-66
2023/06/13 07:50:59;;;;;;;;;12.25;12.00;;;;;23.35;38.91;101524.66;4991867;28;8851;-66
2023/06/13 07:53:26;;;;;;;;;10.50;10.00;;;;;23.42;39.87;101522.53;4991891;28;8839;-66
2023/06/13 07:55:54;;;;;;;;;16.00;14.25;;;;;23.44;41.01;101523.88;4991447;28;8823;-66
2023/06/13 07:58:21;;;;;;;;;15.00;13.00;;;;;23.43;41.44;101527.75;4991848;28;9056;-66
2023/06/13 08:00:48;;;;;;;;;13.75;13.50;;;;;23.44;40.35;101529.38;5006864;28;8862;-65
2023/06/13 08:03:14;;;;;;;;;9.00;9.00;;;;;23.42;40.71;101534.34;5006795;28;8839;-66
2023/06/13 08:05:41;;;;;;;;;13.00;12.50;;;;;23.42;40.17;101526.09;4991628;28;8831;-66
2023/06/13 08:08:08;;;;;;;;;11.00;11.00;;;;;23.52;41.96;101527.25;4991745;28;8831;-66
2023/06/13 08:10:34;;;;;;;;;10.25;10.25;;;;;23.51;42.21;101531.09;4992023;28;8862;-66
2023/06/13 08:13:01;;;;;;;;;13.25;13.25;;;;;23.61;43.99;101531.16;4991562;28;8835;-66
2023/06/13 08:15:29;;;;;;;;;14.50;14.00;;;;;23.63;44.39;101526.22;5006175;28;8863;-66
2023/06/13 08:17:57;;;;;;;;;15.75;12.25;;;;;23.60;44.77;101535.81;4991245;28;8842;-66
2023/06/13 08:20:24;;;;;;;;;13.50;13.50;;;;;23.53;44.30;101526.16;5006442;28;9177;-65
2023/06/13 08:22:51;;;;;;;;;14.25;13.75;;;;;23.48;45.07;101523.38;4991276;28;8831;-65
2023/06/13 08:25:17;;;;;;;;;16.75;15.25;;;;;23.47;44.99;101527.22;4991319;28;9550;-65
2023/06/13 08:27:44;;;;;;;;;16.00;13.00;;;;;23.48;45.36;101528.88;4991206;28;9551;-65
2023/06/13 08:30:11;;;;;;;;;14.67;14.33;;;;;23.43;45.43;101533.22;5006365;28;9149;-66
2023/06/13 08:32:39;;;;;;;;;15.75;15.50;;;;;23.40;45.57;101527.44;4991151;28;9064;-65
2023/06/13 08:35:06;;;;;;;;;13.00;13.00;;;;;23.41;45.26;101526.34;5022381;28;8831;-65
2023/06/13 08:37:33;;;;;;;;;12.00;10.75;;;;;23.43;45.60;101526.91;5022686;28;9411;-65
2023/06/13 08:39:59;;;;;;;;;16.50;16.50;;;;;23.48;45.61;101532.44;4990956;28;9498;-65
2023/06/13 08:42:28;;;;;;;;;19.25;17.00;;;;;23.47;45.98;101530.78;4990907;28;8845;-65
2023/06/13 08:44:54;;;;;;;;;21.75;17.75;;;;;23.38;46.34;101532.38;4990649;28;9586;-65
2023/06/13 08:47:21;;;;;;;;;18.75;17.50;;;;;23.25;46.70;101538.28;4990891;28;8851;-66
2023/06/13 08:50:04;;;;;;;;;17.33;16.33;;;;;23.24;46.73;101539.41;4989602;28;8978;-66
2023/06/13 08:52:39;;;;;;;;;18.33;17.00;;;;;23.20;46.72;101545.41;4990781;28;9078;-65
2023/06/13 08:55:12;;;;;;;;;19.00;17.67;;;;;23.16;46.72;101530.53;4990570;28;9722;-66
2023/06/13 08:58:03;;;;;;;;;21.00;19.00;;;;;23.11;46.90;101535.16;4990691;28;8897;-65
2023/06/13 09:00:35;;;;;;;;;17.67;17.67;;;;;23.12;47.36;101523.09;4990835;28;9055;-65
2023/06/13 09:03:03;;;;;;;;;17.00;17.00;;;;;23.22;47.71;101525.94;5005364;28;8926;-66
2023/06/13 09:05:32;;;;;;;;;22.75;20.50;;;;;23.32;47.90;101528.75;4990445;28;8835;-66
2023/06/13 09:07:59;;;;;;;;;19.25;17.75;;;;;23.37;48.16;101525.19;5005606;28;8843;-66
2023/06/13 09:10:47;;;;;;;;;22.67;20.00;;;;;23.39;49.56;101521.13;4990659;28;8929;-66
2023/06/13 09:13:15;;;;;;;;;17.50;16.50;;;;;23.39;49.43;101517.53;4990621;28;8914;-66
2023/06/13 09:15:44;;;;;;;;;13.25;13.00;;;;;23.49;49.04;101519.53;4990208;28;8893;-66
2023/06/13 09:18:15;;;;;;;;;20.33;19.33;;;;;23.43;47.93;101521.41;4990428;28;8887;-66
2023/06/13 09:20:44;;;;;;;;;21.33;20.33;;;;;23.32;48.49;101516.94;4990536;28;8926;-66
2023/06/13 09:23:17;;;;;;;;;21.00;21.00;;;;;23.21;48.23;101518.75;4990395;28;8928;-66
2023/06/13 09:25:47;;;;;;;;;25.00;23.33;;;;;23.23;48.24;101521.25;4990280;28;8996;-65
2023/06/13 09:28:31;;;;;;;;;16.75;16.75;;;;;23.19;47.82;101520.94;4990567;28;9726;-65
2023/06/13 09:30:58;;;;;;;;;23.67;22.00;;;;;23.23;47.93;101510.28;4990514;28;8831;-65
2023/06/13 09:33:25;;;;;;;;;15.00;14.50;;;;;23.27;48.53;101514.16;4990522;28;9004;-65
2023/06/13 09:35:52;;;;;;;;;20.67;18.00;;;;;23.32;48.15;101516.94;4990192;28;9574;-66
2023/06/13 09:38:23;;;;;;;;;19.67;17.67;;;;;23.32;46.79;101516.94;4990695;28;8927;-65
2023/06/13 09:40:54;;;;;;;;;18.00;17.00;;;;;23.21;46.74;101513.25;4990201;28;8997;-65
2023/06/13 09:43:22;;;;;;;;;18.50;18.00;;;;;23.11;46.65;101513.19;4990099;28;8926;-66
2023/06/13 09:45:50;;;;;;;;;20.33;20.00;;;;;23.05;47.87;101515.09;4991064;28;8859;-65
2023/06/13 09:48:17;;;;;;;;;19.67;18.33;;;;;23.08;45.69;101519.19;4994004;28;9640;-65
2023/06/13 09:50:44;;;;;;;;;14.67;14.33;;;;;23.06;46.18;101521.41;4994148;28;8990;-65
2023/06/13 09:53:11;;;;;;;;;22.00;20.00;;;;;23.08;45.20;101517.28;5009162;28;8989;-65
2023/06/13 09:55:37;;;;;;;;;19.67;19.33;;;;;23.14;46.00;101509.94;4993669;28;9197;-66
2023/06/13 09:58:05;;;;;;;;;17.33;17.33;;;;;23.19;46.06;101510.78;4993872;28;9079;-65
2023/06/13 10:00:35;;;;;;;;;13.00;11.75;;;;;23.34;46.52;101509.28;4994024;28;8891;-64
2023/06/13 10:03:02;;;;;;;;;17.00;16.00;;;;;23.44;45.96;101506.59;4993830;28;8839;-65
2023/06/13 10:05:46;;;;;;;;;17.75;16.50;;;;;23.48;45.26;101507.72;4993727;28;8962;-65
2023/06/13 10:08:13;;;;;;;;;17.25;15.00;;;;;23.51;46.36;101501.69;4993715;28;8839;-65
2023/06/13 10:10:41;;;;;;;;;14.50;14.50;;;;;23.62;46.75;101500.66;5009191;28;9586;-66
2023/06/13 10:13:13;;;;;;;;;20.33;18.67;;;;;23.75;45.15;101512.31;4993817;28;8831;-66
2023/06/13 10:15:45;;;;;;;;;20.00;19.00;;;;;23.69;44.18;101506.75;4993530;28;8931;-65
2023/06/13 10:18:14;;;;;;;;;18.25;15.50;;;;;23.71;45.51;101512.03;5008768;28;8937;-65
2023/06/13 10:20:47;;;;;;;;;19.25;14.75;;;;;23.75;45.11;101504.91;4993565;28;8835;-65
2023/06/13 10:23:15;;;;;;;;;18.25;17.00;;;;;23.78;44.27;101501.63;4993552;28;8909;-65
2023/06/13 10:25:48;;;;;;;;;12.50;12.50;;;;;23.80;44.63;101504.09;4993170;28;8850;-65
2023/06/13 10:28:50;;;;;;;;;13.50;13.50;;;;;23.92;44.55;101500.03;4993614;28;8859;-65
2023/06/13 10:31:47;;;;;;;;;20.25;17.00;;;;;24.02;44.41;101503.91;4993235;28;8867;-65
2023/06/13 10:35:04;;;;;;;;;16.50;15.75;;;;;24.01;43.45;101499.50;4992907;28;8925;-66
2023/06/13 10:37:30;;;;;;;;;18.50;17.75;;;;;24.08;43.18;101505.59;4951893;28;8869;-66
2023/06/13 10:40:27;;;;;;;;;17.50;17.50;;;;;24.03;42.38;101508.34;4988970;28;8865;-65
2023/06/13 10:43:04;;;;;;;;;15.50;15.50;;;;;23.97;42.60;101501.16;4993160;28;8838;-66
2023/06/13 10:45:31;;;;;;;;;14.25;14.25;;;;;23.97;42.66;101506.66;4992956;28;8831;-66
2023/06/13 10:47:59;;;;;;;;;14.75;13.25;;;;;24.02;43.25;101496.47;5008027;28;8847;-66
2023/06/13 10:50:25;;;;;;;;;18.50;18.50;;;;;24.10;42.04;101493.22;4993357;28;8877;-65
2023/06/13 10:52:55;;;;;;;;;14.25;13.00;;;;;24.16;41.22;101491.34;4993153;28;8846;-65
2023/06/13 10:55:23;;;;;;;;;10.75;10.00;;;;;24.26;41.78;101498.78;5007751;28;8855;-66
2023/06/13 10:57:56;;;;;;;;;12.50;12.50;;;;;24.23;41.07;101485.59;4991702;28;8831;-66
2023/06/13 11:00:33;;;;;;;;;15.00;15.00;;;;;24.24;40.88;101479.81;5007978;28;8843;-66
2023/06/13 11:03:07;;;;;;;;;16.75;16.00;;;;;24.32;40.19;101481.22;4993396;28;8847;-66
2023/06/13 11:05:46;;;;;;;;;17.00;16.50;;;;;24.32;40.72;101478.47;5007837;28;8827;-67
2023/06/13 11:08:24;;;;;;;;;16.50;15.25;;;;;24.24;40.89;101465.22;4992884;28;8862;-66
2023/06/13 11:10:55;;;;;;;;;16.50;14.75;;;;;24.29;41.20;101473.50;5007816;28;8912;-66
2023/06/13 11:13:26;;;;;;;;;15.50;14.75;;;;;24.31;40.19;101476.81;4992657;28;8823;-67
2023/06/13 11:15:55;;;;;;;;;19.25;15.00;;;;;24.26;39.97;101463.84;4992436;28;8835;-66
2023/06/13 11:18:21;;;;;;;;;18.75;17.75;;;;;24.34;40.16;101474.31;5024064;28;8847;-65
2023/06/13 11:20:55;;;;;;;;;16.50;11.50;;;;;24.37;39.98;101467.47;4992580;28;8847;-66
2023/06/13 11:23:23;;;;;;;;;15.50;15.00;;;;;24.47;40.24;101458.41;4992247;28;8834;-65
2023/06/13 11:25:51;;;;;;;;;22.00;18.50;;;;;24.52;38.51;101459.28;4992220;28;8827;-65
2023/06/13 11:28:18;;;;;;;;;15.00;14.50;;;;;24.58;38.84;101455.41;5007256;28;8843;-65
2023/06/13 11:30:47;;;;;;;;;12.50;12.00;;;;;24.69;38.85;101450.75;4992494;28;8858;-66
2023/06/13 11:33:16;;;;;;;;;16.25;13.50;;;;;24.75;38.82;101466.16;5007252;28;8823;-67